Libertytown, Maryland
Current Conditions -  °F | °C
As of 11:25 PM on Wednesday 28 Jan 2015 (Local Time) from KFDK Reporting Station
Clear Clear  
Wind Chill: 13°   Ceiling: Unl
Heat Index: 19°   Visibility: 10mi
Dew Point: 10°   Wind: 5mph
Humidity: 68%   Direction: 190°S
Pressure: 30.37"   Gusts: NA
Location:  39.48°N, 77.23°W
Report Text: KFDK 290425Z AUTO 19004KT 10SM CLR M07/M12 A3037 RMK AO2
Loading
Personal Weather Stations






























Interactive Weather Map New forecast layout! Learn more

10-Day Weather Forecast

Advertisements
Track Severe Weather on mobile